sensor_id;sensor_type;location;lat;lon;timestamp;P1;durP1;ratioP1;P2;durP2;ratioP2
26612;SDS011;14248;57.652;11.908;2023-02-01T00:01:31;19.13;;;3.13;;
26612;SDS011;14248;57.652;11.908;2023-02-01T00:03:57;16.33;;;2.67;;
26612;SDS011;14248;57.652;11.908;2023-02-01T00:06:23;14.05;;;1.98;;
26612;SDS011;14248;57.652;11.908;2023-02-01T00:08:51;19.00;;;3.25;;
26612;SDS011;14248;57.652;11.908;2023-02-01T00:11:18;14.13;;;2.00;;
26612;SDS011;14248;57.652;11.908;2023-02-01T00:13:44;19.67;;;2.30;;
26612;SDS011;14248;57.652;11.908;2023-02-01T00:16:11;15.88;;;2.78;;
26612;SDS011;14248;57.652;11.908;2023-02-01T00:18:38;17.60;;;2.25;;
26612;SDS011;14248;57.652;11.908;2023-02-01T00:21:04;18.15;;;1.92;;
26612;SDS011;14248;57.652;11.908;2023-02-01T00:23:34;17.80;;;2.47;;
26612;SDS011;14248;57.652;11.908;2023-02-01T00:26:03;17.25;;;2.63;;
26612;SDS011;14248;57.652;11.908;2023-02-01T00:28:30;17.90;;;2.45;;
26612;SDS011;14248;57.652;11.908;2023-02-01T00:30:56;18.67;;;2.28;;
26612;SDS011;14248;57.652;11.908;2023-02-01T00:33:23;15.82;;;2.42;;
26612;SDS011;14248;57.652;11.908;2023-02-01T00:35:49;22.45;;;2.40;;
26612;SDS011;14248;57.652;11.908;2023-02-01T00:38:15;13.10;;;2.42;;
26612;SDS011;14248;57.652;11.908;2023-02-01T00:40:41;25.25;;;3.55;;
26612;SDS011;14248;57.652;11.908;2023-02-01T00:43:07;19.35;;;2.50;;
26612;SDS011;14248;57.652;11.908;2023-02-01T00:45:33;22.70;;;2.40;;
26612;SDS011;14248;57.652;11.908;2023-02-01T00:47:59;20.88;;;2.72;;
26612;SDS011;14248;57.652;11.908;2023-02-01T00:50:25;24.48;;;3.28;;
26612;SDS011;14248;57.652;11.908;2023-02-01T00:52:51;17.70;;;2.30;;
26612;SDS011;14248;57.652;11.908;2023-02-01T00:55:17;24.27;;;3.05;;
26612;SDS011;14248;57.652;11.908;2023-02-01T00:57:43;18.90;;;2.35;;
26612;SDS011;14248;57.652;11.908;2023-02-01T01:00:09;23.40;;;2.72;;
26612;SDS011;14248;57.652;11.908;2023-02-01T01:02:35;22.63;;;2.67;;
26612;SDS011;14248;57.652;11.908;2023-02-01T01:05:01;20.10;;;2.20;;
26612;SDS011;14248;57.652;11.908;2023-02-01T01:07:28;19.27;;;3.13;;
26612;SDS011;14248;57.652;11.908;2023-02-01T01:09:54;21.20;;;2.65;;
26612;SDS011;14248;57.652;11.908;2023-02-01T01:12:20;14.25;;;2.80;;
26612;SDS011;14248;57.652;11.908;2023-02-01T01:14:46;20.42;;;3.38;;
26612;SDS011;14248;57.652;11.908;2023-02-01T01:17:12;21.45;;;2.75;;
26612;SDS011;14248;57.652;11.908;2023-02-01T01:19:38;19.95;;;2.90;;
26612;SDS011;14248;57.652;11.908;2023-02-01T01:22:04;24.45;;;2.75;;
26612;SDS011;14248;57.652;11.908;2023-02-01T01:24:30;19.27;;;2.90;;
26612;SDS011;14248;57.652;11.908;2023-02-01T01:26:56;20.02;;;2.67;;
26612;SDS011;14248;57.652;11.908;2023-02-01T01:29:22;15.32;;;2.55;;
26612;SDS011;14248;57.652;11.908;2023-02-01T01:31:48;15.52;;;2.60;;
26612;SDS011;14248;57.652;11.908;2023-02-01T01:34:15;24.67;;;2.97;;
26612;SDS011;14248;57.652;11.908;2023-02-01T01:36:41;20.67;;;2.95;;
26612;SDS011;14248;57.652;11.908;2023-02-01T01:39:07;30.30;;;3.85;;
26612;SDS011;14248;57.652;11.908;2023-02-01T01:41:33;26.20;;;2.90;;
26612;SDS011;14248;57.652;11.908;2023-02-01T01:44:03;24.98;;;3.65;;
26612;SDS011;14248;57.652;11.908;2023-02-01T01:51:34;24.92;;;3.15;;
26612;SDS011;14248;57.652;11.908;2023-02-01T01:56:27;20.58;;;2.95;;
26612;SDS011;14248;57.652;11.908;2023-02-01T01:58:54;15.10;;;2.63;;
26612;SDS011;14248;57.652;11.908;2023-02-01T02:01:20;21.63;;;3.13;;
26612;SDS011;14248;57.652;11.908;2023-02-01T02:03:46;22.63;;;3.20;;
26612;SDS011;14248;57.652;11.908;2023-02-01T02:08:45;28.00;;;3.58;;
26612;SDS011;14248;57.652;11.908;2023-02-01T02:11:12;23.55;;;2.85;;
26612;SDS011;14248;57.652;11.908;2023-02-01T02:13:41;17.65;;;3.92;;
26612;SDS011;14248;57.652;11.908;2023-02-01T02:16:18;20.65;;;3.55;;
26612;SDS011;14248;57.652;11.908;2023-02-01T02:19:05;18.98;;;3.33;;
26612;SDS011;14248;57.652;11.908;2023-02-01T02:34:57;33.22;;;3.80;;
26612;SDS011;14248;57.652;11.908;2023-02-01T02:43:04;21.23;;;3.85;;
26612;SDS011;14248;57.652;11.908;2023-02-01T02:45:44;28.60;;;3.33;;
26612;SDS011;14248;57.652;11.908;2023-02-01T02:48:55;21.85;;;3.60;;
26612;SDS011;14248;57.652;11.908;2023-02-01T02:51:52;25.75;;;3.60;;
26612;SDS011;14248;57.652;11.908;2023-02-01T02:54:28;30.23;;;3.60;;
26612;SDS011;14248;57.652;11.908;2023-02-01T02:57:57;25.23;;;3.60;;
26612;SDS011;14248;57.652;11.908;2023-02-01T03:03:01;18.88;;;3.00;;
26612;SDS011;14248;57.652;11.908;2023-02-01T03:05:47;26.35;;;3.67;;
26612;SDS011;14248;57.652;11.908;2023-02-01T03:08:22;27.40;;;3.88;;
26612;SDS011;14248;57.652;11.908;2023-02-01T03:13:26;20.70;;;3.80;;
26612;SDS011;14248;57.652;11.908;2023-02-01T03:15:58;28.77;;;4.38;;
26612;SDS011;14248;57.652;11.908;2023-02-01T03:20:52;36.25;;;4.15;;
26612;SDS011;14248;57.652;11.908;2023-02-01T03:23:19;31.75;;;3.88;;
26612;SDS011;14248;57.652;11.908;2023-02-01T03:25:47;35.47;;;5.38;;
26612;SDS011;14248;57.652;11.908;2023-02-01T03:28:14;40.25;;;4.93;;
26612;SDS011;14248;57.652;11.908;2023-02-01T03:30:42;41.60;;;6.35;;
26612;SDS011;14248;57.652;11.908;2023-02-01T03:33:10;36.20;;;4.90;;
26612;SDS011;14248;57.652;11.908;2023-02-01T03:35:57;36.42;;;5.32;;
26612;SDS011;14248;57.652;11.908;2023-02-01T03:44:14;32.63;;;5.22;;
26612;SDS011;14248;57.652;11.908;2023-02-01T03:46:33;32.65;;;4.70;;
26612;SDS011;14248;57.652;11.908;2023-02-01T03:49:11;35.55;;;4.38;;
26612;SDS011;14248;57.652;11.908;2023-02-01T03:51:39;22.40;;;3.30;;
26612;SDS011;14248;57.652;11.908;2023-02-01T03:54:06;27.27;;;4.15;;
26612;SDS011;14248;57.652;11.908;2023-02-01T03:56:36;29.65;;;4.50;;
26612;SDS011;14248;57.652;11.908;2023-02-01T03:59:03;32.20;;;4.43;;
26612;SDS011;14248;57.652;11.908;2023-02-01T04:01:29;32.65;;;4.75;;
26612;SDS011;14248;57.652;11.908;2023-02-01T04:03:56;38.80;;;4.70;;
26612;SDS011;14248;57.652;11.908;2023-02-01T04:06:22;28.05;;;4.00;;
26612;SDS011;14248;57.652;11.908;2023-02-01T04:08:50;32.67;;;4.35;;
26612;SDS011;14248;57.652;11.908;2023-02-01T04:11:16;27.52;;;4.90;;
26612;SDS011;14248;57.652;11.908;2023-02-01T04:13:42;30.30;;;4.65;;
26612;SDS011;14248;57.652;11.908;2023-02-01T04:16:09;30.40;;;4.78;;
26612;SDS011;14248;57.652;11.908;2023-02-01T04:18:35;28.50;;;4.63;;
26612;SDS011;14248;57.652;11.908;2023-02-01T04:21:01;31.33;;;4.40;;
26612;SDS011;14248;57.652;11.908;2023-02-01T04:23:28;29.38;;;4.63;;
26612;SDS011;14248;57.652;11.908;2023-02-01T04:25:58;33.50;;;4.68;;
26612;SDS011;14248;57.652;11.908;2023-02-01T04:28:25;41.22;;;5.50;;
26612;SDS011;14248;57.652;11.908;2023-02-01T04:30:51;28.73;;;5.00;;
26612;SDS011;14248;57.652;11.908;2023-02-01T04:33:17;37.28;;;5.35;;
26612;SDS011;14248;57.652;11.908;2023-02-01T04:35:43;39.40;;;4.93;;
26612;SDS011;14248;57.652;11.908;2023-02-01T04:38:09;30.40;;;4.68;;
26612;SDS011;14248;57.652;11.908;2023-02-01T04:40:35;39.90;;;4.85;;
26612;SDS011;14248;57.652;11.908;2023-02-01T04:43:03;42.33;;;5.57;;
26612;SDS011;14248;57.652;11.908;2023-02-01T04:45:29;44.30;;;5.65;;
26612;SDS011;14248;57.652;11.908;2023-02-01T04:47:55;45.63;;;6.43;;
26612;SDS011;14248;57.652;11.908;2023-02-01T04:50:21;35.33;;;4.63;;
26612;SDS011;14248;57.652;11.908;2023-02-01T04:52:48;39.85;;;4.55;;
26612;SDS011;14248;57.652;11.908;2023-02-01T04:55:14;34.45;;;4.80;;
26612;SDS011;14248;57.652;11.908;2023-02-01T04:57:40;31.42;;;5.53;;
26612;SDS011;14248;57.652;11.908;2023-02-01T05:00:07;30.33;;;4.32;;
26612;SDS011;14248;57.652;11.908;2023-02-01T05:02:34;36.55;;;4.63;;
26612;SDS011;14248;57.652;11.908;2023-02-01T05:05:00;33.25;;;4.95;;
26612;SDS011;14248;57.652;11.908;2023-02-01T05:07:26;26.33;;;4.35;;
26612;SDS011;14248;57.652;11.908;2023-02-01T05:09:52;31.40;;;4.50;;
26612;SDS011;14248;57.652;11.908;2023-02-01T05:12:18;33.75;;;5.32;;
26612;SDS011;14248;57.652;11.908;2023-02-01T05:15:03;36.08;;;4.53;;
26612;SDS011;14248;57.652;11.908;2023-02-01T05:17:29;34.80;;;4.57;;
26612;SDS011;14248;57.652;11.908;2023-02-01T05:19:55;37.50;;;4.90;;
26612;SDS011;14248;57.652;11.908;2023-02-01T05:22:21;32.40;;;3.95;;
26612;SDS011;14248;57.652;11.908;2023-02-01T05:24:47;17.00;;;3.22;;
26612;SDS011;14248;57.652;11.908;2023-02-01T05:27:13;27.08;;;4.00;;
26612;SDS011;14248;57.652;11.908;2023-02-01T05:29:39;23.20;;;3.95;;
26612;SDS011;14248;57.652;11.908;2023-02-01T05:32:05;23.42;;;4.03;;
26612;SDS011;14248;57.652;11.908;2023-02-01T05:34:31;37.25;;;4.40;;
26612;SDS011;14248;57.652;11.908;2023-02-01T05:36:57;27.00;;;4.32;;
26612;SDS011;14248;57.652;11.908;2023-02-01T05:39:24;27.45;;;4.15;;
26612;SDS011;14248;57.652;11.908;2023-02-01T05:41:50;31.98;;;4.50;;
26612;SDS011;14248;57.652;11.908;2023-02-01T05:44:16;27.85;;;3.92;;
26612;SDS011;14248;57.652;11.908;2023-02-01T05:46:42;24.48;;;4.18;;
26612;SDS011;14248;57.652;11.908;2023-02-01T05:49:08;30.60;;;4.90;;
26612;SDS011;14248;57.652;11.908;2023-02-01T05:51:34;23.48;;;3.55;;
26612;SDS011;14248;57.652;11.908;2023-02-01T05:54:00;31.67;;;4.70;;
26612;SDS011;14248;57.652;11.908;2023-02-01T05:56:27;26.33;;;3.67;;
26612;SDS011;14248;57.652;11.908;2023-02-01T05:58:53;32.95;;;3.90;;
26612;SDS011;14248;57.652;11.908;2023-02-01T06:01:19;26.33;;;3.63;;
26612;SDS011;14248;57.652;11.908;2023-02-01T06:03:45;28.20;;;4.22;;
26612;SDS011;14248;57.652;11.908;2023-02-01T06:06:11;29.80;;;3.42;;
26612;SDS011;14248;57.652;11.908;2023-02-01T06:08:37;18.65;;;3.35;;
26612;SDS011;14248;57.652;11.908;2023-02-01T06:11:05;35.33;;;4.65;;
26612;SDS011;14248;57.652;11.908;2023-02-01T06:13:31;28.15;;;4.18;;
26612;SDS011;14248;57.652;11.908;2023-02-01T06:15:58;25.92;;;4.32;;
26612;SDS011;14248;57.652;11.908;2023-02-01T06:18:24;28.00;;;3.88;;
26612;SDS011;14248;57.652;11.908;2023-02-01T06:20:54;27.55;;;4.80;;
26612;SDS011;14248;57.652;11.908;2023-02-01T06:23:21;42.75;;;5.38;;
26612;SDS011;14248;57.652;11.908;2023-02-01T06:25:49;28.63;;;4.50;;
26612;SDS011;14248;57.652;11.908;2023-02-01T06:28:15;31.25;;;5.00;;
26612;SDS011;14248;57.652;11.908;2023-02-01T06:30:41;35.30;;;5.13;;
26612;SDS011;14248;57.652;11.908;2023-02-01T06:33:11;33.42;;;4.35;;
26612;SDS011;14248;57.652;11.908;2023-02-01T06:35:40;36.72;;;3.97;;
26612;SDS011;14248;57.652;11.908;2023-02-01T06:38:07;34.15;;;5.25;;
26612;SDS011;14248;57.652;11.908;2023-02-01T06:40:33;36.10;;;4.97;;
26612;SDS011;14248;57.652;11.908;2023-02-01T06:43:00;37.33;;;4.47;;
26612;SDS011;14248;57.652;11.908;2023-02-01T06:45:26;25.25;;;4.10;;
26612;SDS011;14248;57.652;11.908;2023-02-01T06:47:52;26.90;;;4.00;;
26612;SDS011;14248;57.652;11.908;2023-02-01T06:50:18;34.42;;;3.95;;
26612;SDS011;14248;57.652;11.908;2023-02-01T06:52:45;27.45;;;4.40;;
26612;SDS011;14248;57.652;11.908;2023-02-01T06:55:11;31.90;;;3.75;;
26612;SDS011;14248;57.652;11.908;2023-02-01T06:57:39;31.00;;;4.22;;
26612;SDS011;14248;57.652;11.908;2023-02-01T07:00:05;34.15;;;4.60;;
26612;SDS011;14248;57.652;11.908;2023-02-01T07:02:32;28.73;;;4.05;;
26612;SDS011;14248;57.652;11.908;2023-02-01T07:04:58;31.55;;;3.67;;
26612;SDS011;14248;57.652;11.908;2023-02-01T07:07:25;29.23;;;4.70;;
26612;SDS011;14248;57.652;11.908;2023-02-01T07:09:51;27.52;;;4.35;;
26612;SDS011;14248;57.652;11.908;2023-02-01T07:12:17;32.10;;;3.83;;
26612;SDS011;14248;57.652;11.908;2023-02-01T07:14:44;31.48;;;3.65;;
26612;SDS011;14248;57.652;11.908;2023-02-01T07:17:10;24.52;;;3.50;;
26612;SDS011;14248;57.652;11.908;2023-02-01T07:19:36;19.50;;;2.92;;
26612;SDS011;14248;57.652;11.908;2023-02-01T07:22:02;22.10;;;3.40;;
26612;SDS011;14248;57.652;11.908;2023-02-01T07:24:29;20.85;;;2.45;;
26612;SDS011;14248;57.652;11.908;2023-02-01T07:26:56;19.70;;;4.03;;
26612;SDS011;14248;57.652;11.908;2023-02-01T07:29:22;22.95;;;3.38;;
26612;SDS011;14248;57.652;11.908;2023-02-01T07:31:48;16.48;;;2.72;;
26612;SDS011;14248;57.652;11.908;2023-02-01T07:34:14;19.52;;;2.55;;
26612;SDS011;14248;57.652;11.908;2023-02-01T07:36:40;17.52;;;2.63;;
26612;SDS011;14248;57.652;11.908;2023-02-01T07:39:07;19.23;;;3.15;;
26612;SDS011;14248;57.652;11.908;2023-02-01T07:41:34;17.80;;;2.70;;
26612;SDS011;14248;57.652;11.908;2023-02-01T07:44:00;20.27;;;2.65;;
26612;SDS011;14248;57.652;11.908;2023-02-01T07:46:26;19.45;;;2.70;;
26612;SDS011;14248;57.652;11.908;2023-02-01T07:48:52;16.25;;;2.85;;
26612;SDS011;14248;57.652;11.908;2023-02-01T07:51:18;16.67;;;2.67;;
26612;SDS011;14248;57.652;11.908;2023-02-01T07:53:44;27.67;;;2.70;;
26612;SDS011;14248;57.652;11.908;2023-02-01T07:56:11;20.45;;;3.03;;
26612;SDS011;14248;57.652;11.908;2023-02-01T07:58:38;16.58;;;2.85;;
26612;SDS011;14248;57.652;11.908;2023-02-01T08:01:04;19.77;;;2.80;;
26612;SDS011;14248;57.652;11.908;2023-02-01T08:03:46;20.95;;;2.90;;
26612;SDS011;14248;57.652;11.908;2023-02-01T08:06:12;19.30;;;2.70;;
26612;SDS011;14248;57.652;11.908;2023-02-01T08:08:38;17.60;;;2.72;;
26612;SDS011;14248;57.652;11.908;2023-02-01T08:11:05;23.85;;;3.08;;
26612;SDS011;14248;57.652;11.908;2023-02-01T08:13:31;20.83;;;3.00;;
26612;SDS011;14248;57.652;11.908;2023-02-01T08:15:58;22.25;;;2.50;;
26612;SDS011;14248;57.652;11.908;2023-02-01T08:18:25;24.40;;;3.05;;
26612;SDS011;14248;57.652;11.908;2023-02-01T08:20:51;19.90;;;3.17;;
26612;SDS011;14248;57.652;11.908;2023-02-01T08:23:17;25.30;;;3.45;;
26612;SDS011;14248;57.652;11.908;2023-02-01T08:25:43;26.40;;;3.60;;
26612;SDS011;14248;57.652;11.908;2023-02-01T08:28:10;21.17;;;3.65;;
26612;SDS011;14248;57.652;11.908;2023-02-01T08:30:36;22.40;;;3.33;;
26612;SDS011;14248;57.652;11.908;2023-02-01T08:33:03;19.13;;;3.25;;
26612;SDS011;14248;57.652;11.908;2023-02-01T08:35:36;29.42;;;3.58;;
26612;SDS011;14248;57.652;11.908;2023-02-01T08:38:02;18.17;;;3.10;;
26612;SDS011;14248;57.652;11.908;2023-02-01T08:40:29;25.05;;;3.83;;
26612;SDS011;14248;57.652;11.908;2023-02-01T08:42:55;19.15;;;3.60;;
26612;SDS011;14248;57.652;11.908;2023-02-01T08:45:23;29.70;;;3.50;;
26612;SDS011;14248;57.652;11.908;2023-02-01T08:47:51;19.75;;;3.25;;
26612;SDS011;14248;57.652;11.908;2023-02-01T08:50:17;26.25;;;4.07;;
26612;SDS011;14248;57.652;11.908;2023-02-01T08:52:43;23.95;;;3.33;;
26612;SDS011;14248;57.652;11.908;2023-02-01T08:55:10;25.73;;;3.83;;
26612;SDS011;14248;57.652;11.908;2023-02-01T08:57:37;34.90;;;4.95;;
26612;SDS011;14248;57.652;11.908;2023-02-01T09:00:04;30.23;;;3.83;;
26612;SDS011;14248;57.652;11.908;2023-02-01T09:02:30;29.10;;;4.43;;
26612;SDS011;14248;57.652;11.908;2023-02-01T09:04:56;26.70;;;4.40;;
26612;SDS011;14248;57.652;11.908;2023-02-01T09:07:23;23.70;;;4.45;;
26612;SDS011;14248;57.652;11.908;2023-02-01T09:09:49;27.85;;;4.22;;
26612;SDS011;14248;57.652;11.908;2023-02-01T09:12:16;21.85;;;3.13;;
26612;SDS011;14248;57.652;11.908;2023-02-01T09:14:44;33.30;;;5.00;;
26612;SDS011;14248;57.652;11.908;2023-02-01T09:17:11;35.45;;;4.70;;
26612;SDS011;14248;57.652;11.908;2023-02-01T09:19:38;22.65;;;3.75;;
26612;SDS011;14248;57.652;11.908;2023-02-01T09:22:05;36.42;;;4.50;;
26612;SDS011;14248;57.652;11.908;2023-02-01T09:24:31;31.80;;;4.28;;
26612;SDS011;14248;57.652;11.908;2023-02-01T09:26:59;20.55;;;3.58;;
26612;SDS011;14248;57.652;11.908;2023-02-01T09:29:26;32.08;;;4.10;;
26612;SDS011;14248;57.652;11.908;2023-02-01T09:31:52;24.48;;;4.35;;
26612;SDS011;14248;57.652;11.908;2023-02-01T09:34:18;25.90;;;4.18;;
26612;SDS011;14248;57.652;11.908;2023-02-01T09:36:44;37.63;;;4.22;;
26612;SDS011;14248;57.652;11.908;2023-02-01T09:39:11;26.02;;;3.88;;
26612;SDS011;14248;57.652;11.908;2023-02-01T09:44:41;24.42;;;3.63;;
26612;SDS011;14248;57.652;11.908;2023-02-01T09:47:14;27.20;;;3.92;;
26612;SDS011;14248;57.652;11.908;2023-02-01T09:50:01;31.17;;;3.95;;
26612;SDS011;14248;57.652;11.908;2023-02-01T09:52:31;26.92;;;4.65;;
26612;SDS011;14248;57.652;11.908;2023-02-01T09:55:00;31.35;;;4.32;;
26612;SDS011;14248;57.652;11.908;2023-02-01T09:57:31;30.13;;;4.60;;
26612;SDS011;14248;57.652;11.908;2023-02-01T10:00:03;38.40;;;5.43;;
26612;SDS011;14248;57.652;11.908;2023-02-01T10:02:31;27.85;;;4.28;;
26612;SDS011;14248;57.652;11.908;2023-02-01T10:05:01;32.67;;;4.72;;
26612;SDS011;14248;57.652;11.908;2023-02-01T10:07:47;34.03;;;5.07;;
26612;SDS011;14248;57.652;11.908;2023-02-01T10:13:27;34.83;;;5.10;;
26612;SDS011;14248;57.652;11.908;2023-02-01T10:16:02;30.00;;;4.75;;
26612;SDS011;14248;57.652;11.908;2023-02-01T10:21:09;35.97;;;5.43;;
26612;SDS011;14248;57.652;11.908;2023-02-01T10:28:44;26.55;;;3.53;;
26612;SDS011;14248;57.652;11.908;2023-02-01T10:31:12;21.70;;;3.38;;
26612;SDS011;14248;57.652;11.908;2023-02-01T10:33:43;24.55;;;4.07;;
26612;SDS011;14248;57.652;11.908;2023-02-01T10:36:13;27.85;;;4.15;;
26612;SDS011;14248;57.652;11.908;2023-02-01T10:38:42;31.05;;;3.72;;
26612;SDS011;14248;57.652;11.908;2023-02-01T10:41:15;32.97;;;4.40;;
26612;SDS011;14248;57.652;11.908;2023-02-01T10:43:42;25.50;;;4.00;;
26612;SDS011;14248;57.652;11.908;2023-02-01T10:46:09;28.27;;;4.03;;
26612;SDS011;14248;57.652;11.908;2023-02-01T10:48:35;28.02;;;4.63;;
26612;SDS011;14248;57.652;11.908;2023-02-01T10:51:06;30.00;;;4.32;;
26612;SDS011;14248;57.652;11.908;2023-02-01T10:53:38;30.55;;;4.95;;
26612;SDS011;14248;57.652;11.908;2023-02-01T10:56:08;22.98;;;3.53;;
26612;SDS011;14248;57.652;11.908;2023-02-01T10:58:35;28.90;;;4.22;;
26612;SDS011;14248;57.652;11.908;2023-02-01T11:06:31;28.63;;;4.40;;
26612;SDS011;14248;57.652;11.908;2023-02-01T11:11:52;24.23;;;4.97;;
26612;SDS011;14248;57.652;11.908;2023-02-01T11:17:28;32.45;;;5.13;;
26612;SDS011;14248;57.652;11.908;2023-02-01T11:19:33;38.00;;;5.70;;
26612;SDS011;14248;57.652;11.908;2023-02-01T11:22:00;35.25;;;6.05;;
26612;SDS011;14248;57.652;11.908;2023-02-01T11:24:31;42.17;;;5.72;;
26612;SDS011;14248;57.652;11.908;2023-02-01T11:26:59;35.55;;;5.88;;
26612;SDS011;14248;57.652;11.908;2023-02-01T11:29:27;33.40;;;5.20;;
26612;SDS011;14248;57.652;11.908;2023-02-01T11:31:58;31.95;;;6.43;;
26612;SDS011;14248;57.652;11.908;2023-02-01T11:34:26;39.10;;;5.38;;
26612;SDS011;14248;57.652;11.908;2023-02-01T11:36:54;25.45;;;5.25;;
26612;SDS011;14248;57.652;11.908;2023-02-01T11:39:28;36.17;;;5.40;;
26612;SDS011;14248;57.652;11.908;2023-02-01T11:41:56;27.40;;;4.20;;
26612;SDS011;14248;57.652;11.908;2023-02-01T11:44:45;28.85;;;4.30;;
26612;SDS011;14248;57.652;11.908;2023-02-01T11:49:49;29.60;;;4.75;;
26612;SDS011;14248;57.652;11.908;2023-02-01T11:57:15;28.92;;;4.68;;
26612;SDS011;14248;57.652;11.908;2023-02-01T12:00:46;22.88;;;3.83;;
26612;SDS011;14248;57.652;11.908;2023-02-01T12:05:21;22.90;;;3.67;;
26612;SDS011;14248;57.652;11.908;2023-02-01T12:12:48;22.60;;;3.47;;
26612;SDS011;14248;57.652;11.908;2023-02-01T12:33:58;20.45;;;3.17;;
26612;SDS011;14248;57.652;11.908;2023-02-01T12:44:39;15.77;;;3.25;;
26612;SDS011;14248;57.652;11.908;2023-02-01T12:47:15;16.15;;;3.13;;
26612;SDS011;14248;57.652;11.908;2023-02-01T12:49:52;20.00;;;3.63;;
26612;SDS011;14248;57.652;11.908;2023-02-01T12:52:32;16.45;;;2.97;;
26612;SDS011;14248;57.652;11.908;2023-02-01T12:57:31;22.48;;;3.45;;
26612;SDS011;14248;57.652;11.908;2023-02-01T13:00:04;22.63;;;3.72;;
26612;SDS011;14248;57.652;11.908;2023-02-01T13:02:42;22.30;;;3.55;;
26612;SDS011;14248;57.652;11.908;2023-02-01T13:05:17;27.40;;;4.10;;
26612;SDS011;14248;57.652;11.908;2023-02-01T13:07:54;25.90;;;4.10;;
26612;SDS011;14248;57.652;11.908;2023-02-01T13:12:59;27.65;;;5.07;;
26612;SDS011;14248;57.652;11.908;2023-02-01T13:15:37;23.30;;;4.32;;
26612;SDS011;14248;57.652;11.908;2023-02-01T13:18:05;38.38;;;5.90;;
26612;SDS011;14248;57.652;11.908;2023-02-01T13:20:36;26.08;;;4.88;;
26612;SDS011;14248;57.652;11.908;2023-02-01T13:23:04;25.50;;;4.38;;
26612;SDS011;14248;57.652;11.908;2023-02-01T13:25:38;25.35;;;4.47;;
26612;SDS011;14248;57.652;11.908;2023-02-01T13:28:06;33.78;;;5.32;;
26612;SDS011;14248;57.652;11.908;2023-02-01T13:33:33;38.72;;;5.25;;
26612;SDS011;14248;57.652;11.908;2023-02-01T13:43:49;22.23;;;4.68;;
26612;SDS011;14248;57.652;11.908;2023-02-01T13:46:16;32.20;;;4.55;;
26612;SDS011;14248;57.652;11.908;2023-02-01T13:51:15;21.90;;;4.70;;
26612;SDS011;14248;57.652;11.908;2023-02-01T13:53:45;32.90;;;5.13;;
26612;SDS011;14248;57.652;11.908;2023-02-01T13:56:20;30.58;;;4.60;;
26612;SDS011;14248;57.652;11.908;2023-02-01T13:58:47;19.33;;;3.80;;
26612;SDS011;14248;57.652;11.908;2023-02-01T14:03:49;29.73;;;3.80;;
26612;SDS011;14248;57.652;11.908;2023-02-01T14:09:12;29.58;;;4.38;;
26612;SDS011;14248;57.652;11.908;2023-02-01T14:11:43;24.90;;;4.25;;
26612;SDS011;14248;57.652;11.908;2023-02-01T14:16:42;31.30;;;4.00;;
26612;SDS011;14248;57.652;11.908;2023-02-01T14:19:09;22.95;;;4.65;;
26612;SDS011;14248;57.652;11.908;2023-02-01T14:21:51;26.13;;;5.18;;
26612;SDS011;14248;57.652;11.908;2023-02-01T14:24:25;28.30;;;4.60;;
26612;SDS011;14248;57.652;11.908;2023-02-01T14:26:52;23.73;;;4.32;;
26612;SDS011;14248;57.652;11.908;2023-02-01T14:29:54;33.15;;;4.78;;
26612;SDS011;14248;57.652;11.908;2023-02-01T14:32:16;27.67;;;3.72;;
26612;SDS011;14248;57.652;11.908;2023-02-01T14:44:51;9.07;;;1.92;;
26612;SDS011;14248;57.652;11.908;2023-02-01T14:55:14;13.52;;;1.95;;
26612;SDS011;14248;57.652;11.908;2023-02-01T14:57:41;9.73;;;1.23;;
26612;SDS011;14248;57.652;11.908;2023-02-01T15:00:16;6.40;;;1.27;;
26612;SDS011;14248;57.652;11.908;2023-02-01T15:02:43;7.80;;;0.98;;
26612;SDS011;14248;57.652;11.908;2023-02-01T15:08:16;4.90;;;0.82;;
26612;SDS011;14248;57.652;11.908;2023-02-01T15:10:44;8.60;;;1.00;;
26612;SDS011;14248;57.652;11.908;2023-02-01T15:13:24;1.35;;;0.60;;
26612;SDS011;14248;57.652;11.908;2023-02-01T15:21:02;7.03;;;1.08;;
26612;SDS011;14248;57.652;11.908;2023-02-01T15:23:28;10.07;;;1.30;;
26612;SDS011;14248;57.652;11.908;2023-02-01T15:25:55;5.72;;;1.10;;
26612;SDS011;14248;57.652;11.908;2023-02-01T15:28:21;5.85;;;1.00;;
26612;SDS011;14248;57.652;11.908;2023-02-01T15:31:06;5.63;;;0.60;;
26612;SDS011;14248;57.652;11.908;2023-02-01T15:33:32;7.70;;;0.95;;
26612;SDS011;14248;57.652;11.908;2023-02-01T15:41:07;3.92;;;0.40;;
26612;SDS011;14248;57.652;11.908;2023-02-01T15:43:41;6.25;;;0.75;;
26612;SDS011;14248;57.652;11.908;2023-02-01T15:46:11;3.85;;;0.63;;
26612;SDS011;14248;57.652;11.908;2023-02-01T15:48:48;4.40;;;0.50;;
26612;SDS011;14248;57.652;11.908;2023-02-01T15:51:16;3.90;;;0.55;;
26612;SDS011;14248;57.652;11.908;2023-02-01T15:53:44;4.28;;;0.60;;
26612;SDS011;14248;57.652;11.908;2023-02-01T15:56:10;2.80;;;0.50;;
26612;SDS011;14248;57.652;11.908;2023-02-01T15:58:36;1.48;;;0.40;;
26612;SDS011;14248;57.652;11.908;2023-02-01T16:01:03;1.75;;;0.20;;
26612;SDS011;14248;57.652;11.908;2023-02-01T16:03:42;2.35;;;0.40;;
26612;SDS011;14248;57.652;11.908;2023-02-01T16:06:12;1.95;;;0.32;;
26612;SDS011;14248;57.652;11.908;2023-02-01T16:08:52;0.52;;;0.17;;
26612;SDS011;14248;57.652;11.908;2023-02-01T16:11:24;3.17;;;0.30;;
26612;SDS011;14248;57.652;11.908;2023-02-01T16:13:50;3.20;;;0.40;;
26612;SDS011;14248;57.652;11.908;2023-02-01T16:16:17;2.83;;;0.50;;
26612;SDS011;14248;57.652;11.908;2023-02-01T16:18:43;2.20;;;0.30;;
26612;SDS011;14248;57.652;11.908;2023-02-01T16:21:11;3.55;;;0.73;;
26612;SDS011;14248;57.652;11.908;2023-02-01T16:23:39;1.83;;;0.70;;
26612;SDS011;14248;57.652;11.908;2023-02-01T16:26:06;3.13;;;0.52;;
26612;SDS011;14248;57.652;11.908;2023-02-01T16:28:38;0.47;;;0.30;;
26612;SDS011;14248;57.652;11.908;2023-02-01T16:31:08;1.05;;;0.47;;
26612;SDS011;14248;57.652;11.908;2023-02-01T16:33:39;1.30;;;0.20;;
26612;SDS011;14248;57.652;11.908;2023-02-01T16:36:05;1.35;;;0.30;;
26612;SDS011;14248;57.652;11.908;2023-02-01T16:38:33;0.63;;;0.17;;
26612;SDS011;14248;57.652;11.908;2023-02-01T16:41:00;2.28;;;0.10;;
26612;SDS011;14248;57.652;11.908;2023-02-01T16:43:27;2.30;;;0.20;;
26612;SDS011;14248;57.652;11.908;2023-02-01T16:48:27;2.85;;;0.43;;
26612;SDS011;14248;57.652;11.908;2023-02-01T16:50:55;1.67;;;0.22;;
26612;SDS011;14248;57.652;11.908;2023-02-01T16:53:23;1.90;;;0.40;;
26612;SDS011;14248;57.652;11.908;2023-02-01T16:55:49;0.60;;;0.20;;
26612;SDS011;14248;57.652;11.908;2023-02-01T16:58:17;0.32;;;0.20;;
26612;SDS011;14248;57.652;11.908;2023-02-01T17:00:44;3.17;;;0.30;;
26612;SDS011;14248;57.652;11.908;2023-02-01T17:03:10;2.50;;;0.40;;
26612;SDS011;14248;57.652;11.908;2023-02-01T17:05:45;1.42;;;0.50;;
26612;SDS011;14248;57.652;11.908;2023-02-01T17:08:13;1.80;;;0.40;;
26612;SDS011;14248;57.652;11.908;2023-02-01T17:10:40;1.30;;;0.40;;
26612;SDS011;14248;57.652;11.908;2023-02-01T17:13:15;0.82;;;0.40;;
26612;SDS011;14248;57.652;11.908;2023-02-01T17:15:52;2.38;;;0.50;;
26612;SDS011;14248;57.652;11.908;2023-02-01T17:18:19;1.27;;;0.40;;
26612;SDS011;14248;57.652;11.908;2023-02-01T17:20:45;3.40;;;0.50;;
26612;SDS011;14248;57.652;11.908;2023-02-01T17:23:15;1.00;;;0.60;;